Smyrna River Smyrna DE USA current weather conditions

sailwx.info

Wind from 003 at 2 knots gusting 4

Air temperature 19.8° C
Dewpoint 19.1° C

Last reported at 2020-Aug-06 12:05 UTC.
Time now 2020-Aug-06 12:21 UTC

Location: N 39°17' W 075°35'.
View on Google Maps.

See reports from other nearby stations

  
Tides and Currents Weather Stations Pressure Air Temp Water Temp Dewpoint Dewpoint Depression Visibility Wind Speed Wind Dir Waves Ship Positions
date/time (UTC)wind fromknots sea level pressurealtimeterstation pressurevisibilityair tempwater tempwave heightnotes
2020-Aug-06 12:05 003 2 gusting 4 19.8
2020-Aug-06 12:00 022 2 gusting 5 19.7
2020-Aug-06 11:55 019 2 gusting 5 19.7
2020-Aug-06 11:50 046 3 gusting 11 19.8
2020-Aug-06 11:45 026 3 gusting 10 19.9
2020-Aug-06 11:40 016 5 gusting 10 19.9
2020-Aug-06 11:35 033 5 gusting 15 20.2
2020-Aug-06 11:30 013 4 gusting 9 19.9
2020-Aug-06 11:25 238 5 gusting 12 19.7
2020-Aug-06 11:20 244 6 gusting 12 19.9
2020-Aug-06 11:15 265 4 gusting 10 20.1
2020-Aug-06 11:10 249 9 gusting 17 20.2
2020-Aug-06 11:05 231 12 gusting 20 21.0
2020-Aug-06 11:00 232 6 gusting 14 22.2
2020-Aug-06 10:55 030 0 gusting 1 22.2
2020-Aug-06 10:50 048 0 gusting 1 22.2
2020-Aug-06 10:45 098 0 gusting 1 22.1
2020-Aug-06 10:40 100 1 gusting 2 22.1
2020-Aug-06 10:35 047 0 gusting 1 21.9
2020-Aug-06 10:30 028 0 gusting 1 21.8
2020-Aug-06 10:25 020 1 gusting 2 21.8
2020-Aug-06 10:20 360 0 gusting 1 21.6
2020-Aug-06 10:15 026 1 gusting 2 21.5
2020-Aug-06 10:10 079 0 gusting 2 21.5
2020-Aug-06 10:05 069 1 gusting 2 21.4
2020-Aug-06 10:00 042 0 gusting 1 21.4
2020-Aug-06 09:55 059 0 gusting 1 21.4
2020-Aug-06 09:50 044 0 gusting 0 21.3
2020-Aug-06 09:45 044 0 gusting 1 21.3
2020-Aug-06 09:40 033 2 gusting 2 21.3
2020-Aug-06 09:35 019 0 gusting 1 21.1
2020-Aug-06 09:30 019 0 gusting 0 21.0
2020-Aug-06 09:25 019 0 gusting 0 21.0
2020-Aug-06 09:20 21.0
2020-Aug-06 09:15 21.0
2020-Aug-06 09:10 21.0
2020-Aug-06 09:05 019 0 gusting 1 21.0
2020-Aug-06 09:00 019 0 gusting 1 20.9
2020-Aug-06 08:55 019 0 gusting 0 20.8
2020-Aug-06 08:50 019 0 gusting 1 20.8
2020-Aug-06 08:45 019 0 gusting 0 20.8
2020-Aug-06 08:40 20.7
2020-Aug-06 08:35 019 0 gusting 1 20.8
2020-Aug-06 08:30 20.8
2020-Aug-06 08:25 20.8
2020-Aug-06 08:20 20.8
2020-Aug-06 08:15 20.9
2020-Aug-06 08:10 019 0 gusting 0 21.0
2020-Aug-06 08:05 019 0 gusting 0 21.0
2020-Aug-06 08:00 019 0 gusting 1 20.9
2020-Aug-06 07:55 019 0 gusting 1 20.9
2020-Aug-06 07:50 019 0 gusting 1 21.0
2020-Aug-06 07:45 019 0 gusting 0 21.0
2020-Aug-06 07:40 019 0 gusting 0 21.0
2020-Aug-06 07:35 21.0
2020-Aug-06 07:30 21.1
2020-Aug-06 07:25 019 0 gusting 0 21.1
2020-Aug-06 07:20 019 0 gusting 0 21.3
2020-Aug-06 07:15 018 1 gusting 1 21.2
2020-Aug-06 07:10 21.2
2020-Aug-06 07:05 21.2
2020-Aug-06 07:00 21.2
2020-Aug-06 06:55 21.2
2020-Aug-06 06:50 018 0 gusting 0 21.4
2020-Aug-06 06:45 21.3
2020-Aug-06 06:40 21.3
2020-Aug-06 06:35 21.1
2020-Aug-06 06:30 018 0 gusting 1 21.0
2020-Aug-06 06:25 018 0 gusting 0 21.1
2020-Aug-06 06:20 018 0 gusting 0 21.0
2020-Aug-06 06:15 018 0 gusting 0 21.3
2020-Aug-06 06:10 018 0 gusting 0 21.4
2020-Aug-06 06:05 21.4
2020-Aug-06 06:00 21.4
2020-Aug-06 05:55 018 0 gusting 0 21.4
2020-Aug-06 05:50 021 0 gusting 1 21.4
2020-Aug-06 05:45 21.5
2020-Aug-06 05:40 21.3
2020-Aug-06 05:35 21.3
2020-Aug-06 05:30 21.3
2020-Aug-06 05:25 21.4
2020-Aug-06 05:20 21.5
2020-Aug-06 05:15 192 0 gusting 0 21.6
2020-Aug-06 05:10 21.6
2020-Aug-06 05:05 21.7
2020-Aug-06 05:00 21.8
2020-Aug-06 04:55 21.7
2020-Aug-06 04:50 193 0 gusting 0 21.6
2020-Aug-06 04:45 21.5
2020-Aug-06 04:40 21.5
2020-Aug-06 04:35 21.6
2020-Aug-06 04:30 192 0 gusting 0 21.6
2020-Aug-06 04:25 193 0 gusting 0 21.7
2020-Aug-06 04:20 21.8
2020-Aug-06 04:15 193 0 gusting 0 21.8
2020-Aug-06 04:10 193 0 gusting 0 21.7
2020-Aug-06 04:05 193 0 gusting 1 21.7
2020-Aug-06 04:00 21.9
2020-Aug-06 03:55 21.9
2020-Aug-06 03:50 21.9
2020-Aug-06 03:45 22.1
2020-Aug-06 03:40 22.2
2020-Aug-06 03:35 193 0 gusting 0 22.0
2020-Aug-06 03:30 193 0 gusting 0 21.9
2020-Aug-06 03:25 193 0 gusting 0 22.0
2020-Aug-06 03:20 22.0
2020-Aug-06 03:15 22.1
2020-Aug-06 03:10 22.1
2020-Aug-06 03:05 22.1
2020-Aug-06 03:00 22.2
2020-Aug-06 02:55 22.2
2020-Aug-06 02:50 22.2
2020-Aug-06 02:45 193 0 gusting 0 22.2
2020-Aug-06 02:40 193 0 gusting 0 22.4
2020-Aug-06 02:35 193 0 gusting 0 22.3
2020-Aug-06 02:30 193 0 gusting 0 22.5
2020-Aug-06 02:25 193 0 gusting 0 22.5
2020-Aug-06 02:20 22.4
2020-Aug-06 02:15 193 0 gusting 0 22.5
2020-Aug-06 02:10 22.5
2020-Aug-06 02:05 22.5
2020-Aug-06 02:00 22.6
2020-Aug-06 01:55 22.7
2020-Aug-06 01:50 272 0 gusting 0 22.7
2020-Aug-06 01:45 272 0 gusting 0 22.7
2020-Aug-06 01:40 273 0 gusting 0 22.8
2020-Aug-06 01:35 22.8
2020-Aug-06 01:30 273 0 gusting 1 23.0
2020-Aug-06 01:25 216 0 gusting 1 22.7
2020-Aug-06 01:20 144 0 gusting 2 23.0
2020-Aug-06 01:15 140 0 gusting 0 23.1
2020-Aug-06 01:10 23.1
2020-Aug-06 01:05 140 0 gusting 0 23.2
2020-Aug-06 01:00 140 0 gusting 1 23.2
2020-Aug-06 00:55 23.4
2020-Aug-06 00:50 23.8
2020-Aug-06 00:45 24.0
2020-Aug-06 00:40 24.1
2020-Aug-06 00:35 24.2
2020-Aug-06 00:30 24.3
2020-Aug-06 00:25 24.7
2020-Aug-06 00:20 24.8
2020-Aug-06 00:15 25.0
2020-Aug-06 00:10 140 0 gusting 0 25.3
2020-Aug-06 00:05 25.5
2020-Aug-06 00:00 25.8
2020-Aug-05 23:55 26.0
2020-Aug-05 23:50 148 0 gusting 1 26.0
2020-Aug-05 23:45 157 0 gusting 0 26.2
2020-Aug-05 23:40 157 0 gusting 0 26.5
2020-Aug-05 23:35 27.0
2020-Aug-05 23:30 157 0 gusting 1 27.3
2020-Aug-05 23:25 157 0 gusting 1 27.7
2020-Aug-05 23:20 156 0 gusting 1 27.9
2020-Aug-05 23:15 156 0 gusting 1 28.1
2020-Aug-05 23:10 165 1 gusting 2 28.4
2020-Aug-05 23:05 165 1 gusting 2 28.7
2020-Aug-05 23:00 194 0 gusting 2 29.0
2020-Aug-05 22:55 198 1 gusting 2 28.8
2020-Aug-05 22:50 211 1 gusting 3 28.9
2020-Aug-05 22:45 212 1 gusting 3 29.0
2020-Aug-05 22:40 251 1 gusting 2 28.9
2020-Aug-05 22:35 244 2 gusting 3 28.9
2020-Aug-05 22:30 244 2 gusting 4 28.8
2020-Aug-05 22:25 244 2 gusting 3 28.9
2020-Aug-05 22:20 234 2 gusting 4 29.2
2020-Aug-05 22:15 258 1 gusting 3 29.2
2020-Aug-05 22:10 254 2 gusting 5 29.2
2020-Aug-05 22:05 249 2 gusting 4 29.1
2020-Aug-05 22:00 234 2 gusting 5 29.2
2020-Aug-05 21:55 240 2 gusting 5 29.4
2020-Aug-05 21:50 243 1 gusting 5 29.7
2020-Aug-05 21:45 238 1 gusting 3 29.4
2020-Aug-05 21:40 227 2 gusting 5 29.5
2020-Aug-05 21:35 265 1 gusting 3 29.5
2020-Aug-05 21:30 221 3 gusting 6 29.3
2020-Aug-05 21:25 242 2 gusting 5 29.4
2020-Aug-05 21:20 247 2 gusting 6 29.5
2020-Aug-05 21:15 249 3 gusting 7 29.4
2020-Aug-05 21:10 250 2 gusting 7 29.9
2020-Aug-05 21:05 239 1 gusting 3 29.6
2020-Aug-05 21:00 247 2 gusting 4 29.6
2020-Aug-05 20:55 280 1 gusting 4 29.6
2020-Aug-05 20:50 239 2 gusting 5 29.7
2020-Aug-05 20:45 276 1 gusting 4 29.6
2020-Aug-05 20:40 246 2 gusting 6 29.7
2020-Aug-05 20:35 247 2 gusting 5 29.6
2020-Aug-05 20:30 261 2 gusting 4 29.5
2020-Aug-05 20:25 249 2 gusting 4 29.6
2020-Aug-05 20:20 250 2 gusting 5 29.6
2020-Aug-05 20:15 252 2 gusting 5 29.8
2020-Aug-05 20:10 263 2 gusting 5 29.7
2020-Aug-05 20:05 334 1 gusting 2 29.4
2020-Aug-05 20:00 026 2 gusting 6 29.2
2020-Aug-05 19:55 265 2 gusting 6 29.6
2020-Aug-05 19:50 240 2 gusting 4 29.3
2020-Aug-05 19:45 233 3 gusting 5 29.7
2020-Aug-05 19:40 221 2 gusting 5 30.0
2020-Aug-05 19:35 309 1 gusting 3 29.8
2020-Aug-05 19:30 320 2 gusting 6 29.5
2020-Aug-05 19:25 352 2 gusting 5 29.9
2020-Aug-05 19:20 240 1 gusting 2 29.8
2020-Aug-05 19:15 230 1 gusting 3 29.9
2020-Aug-05 19:10 304 1 gusting 3 29.5
2020-Aug-05 19:05 315 3 gusting 5 29.3
2020-Aug-05 19:00 249 1 gusting 3 29.4
2020-Aug-05 18:55 214 2 gusting 5 29.3
2020-Aug-05 18:50 004 2 gusting 4 29.3
2020-Aug-05 18:45 004 2 gusting 5 29.4
2020-Aug-05 18:40 320 1 gusting 3 29.4
2020-Aug-05 18:35 268 1 gusting 3 29.3
2020-Aug-05 18:30 260 2 gusting 5 29.3
2020-Aug-05 18:25 271 1 gusting 3 29.4
2020-Aug-05 18:20 295 1 gusting 5 29.4
2020-Aug-05 18:15 253 1 gusting 4 29.2
2020-Aug-05 18:10 356 2 gusting 6 29.2
2020-Aug-05 18:05 015 1 gusting 3 29.0
2020-Aug-05 18:00 348 2 gusting 4 29.1
2020-Aug-05 17:55 286 1 gusting 2 29.0
2020-Aug-05 17:50 008 2 gusting 5 28.7
2020-Aug-05 17:45 029 3 gusting 6 28.9
2020-Aug-05 17:40 014 2 gusting 5 28.8
2020-Aug-05 17:35 036 3 gusting 6 29.1
2020-Aug-05 17:30 334 1 gusting 3 29.1
2020-Aug-05 17:25 234 2 gusting 5 28.6
2020-Aug-05 17:20 003 2 gusting 4 28.6
2020-Aug-05 17:15 329 1 gusting 5 28.6
2020-Aug-05 17:10 359 1 gusting 6 28.0
2020-Aug-05 17:05 308 1 gusting 3 28.2
2020-Aug-05 17:00 354 2 gusting 7 28.5
2020-Aug-05 16:55 030 2 gusting 5 28.5
2020-Aug-05 16:50 343 1 gusting 6 28.4
2020-Aug-05 16:45 021 2 gusting 6 28.2
2020-Aug-05 16:40 352 2 gusting 5 28.3
2020-Aug-05 16:35 008 1 gusting 3 28.2
2020-Aug-05 16:30 026 2 gusting 5 27.9
2020-Aug-05 16:25 338 1 gusting 4 27.8
2020-Aug-05 16:20 022 3 gusting 6 28.0
2020-Aug-05 16:15 040 2 gusting 4 28.1
2020-Aug-05 16:10 262 1 gusting 2 28.3
2020-Aug-05 16:05 002 1 gusting 3 28.2
2020-Aug-05 16:00 314 1 gusting 3 28.4
2020-Aug-05 15:55 320 2 gusting 4 28.2
2020-Aug-05 15:50 281 1 gusting 3 28.2
2020-Aug-05 15:45 003 1 gusting 4 28.1
2020-Aug-05 15:40 014 1 gusting 2 27.8
2020-Aug-05 15:35 327 2 gusting 3 27.6
2020-Aug-05 15:30 354 1 gusting 3 27.8
2020-Aug-05 15:25 004 1 gusting 2 27.3
2020-Aug-05 15:20 016 2 gusting 4 27.5
2020-Aug-05 15:15 350 1 gusting 3 27.3
2020-Aug-05 15:10 017 2 gusting 4 27.4
2020-Aug-05 15:05 005 0 gusting 2 27.2
2020-Aug-05 15:00 352 2 gusting 6 26.9
2020-Aug-05 14:55 354 2 gusting 4 27.0
2020-Aug-05 14:50 320 1 gusting 4 26.9
2020-Aug-05 14:45 025 1 gusting 4 26.7
2020-Aug-05 14:40 025 2 gusting 4 26.4
2020-Aug-05 14:35 017 2 gusting 5 26.2
2020-Aug-05 14:30 018 3 gusting 6 26.3
2020-Aug-05 14:25 001 1 gusting 3 26.4
2020-Aug-05 14:20 326 1 gusting 5 26.4
2020-Aug-05 14:15 26.1
2020-Aug-05 14:10 342 2 gusting 5 26.0
2020-Aug-05 14:05 346 1 gusting 3 26.0
2020-Aug-05 14:00 027 1 gusting 5 25.7
2020-Aug-05 13:55 350 1 gusting 5 25.7
2020-Aug-05 13:50 355 1 gusting 3 26.0
2020-Aug-05 13:45 333 1 gusting 3 25.7
2020-Aug-05 13:40 360 1 gusting 4 25.7
2020-Aug-05 13:35 356 1 gusting 3 25.6
2020-Aug-05 13:30 024 1 gusting 3 25.4
2020-Aug-05 13:25 021 2 gusting 4 25.1
2020-Aug-05 13:20 015 1 gusting 4 25.1
2020-Aug-05 13:15 352 1 gusting 4 25.1
2020-Aug-05 13:10 340 1 gusting 3 25.2
2020-Aug-05 13:05 018 1 gusting 3 24.9
2020-Aug-05 13:00 338 1 gusting 4 24.7
2020-Aug-05 12:55 005 1 gusting 3 24.7
2020-Aug-05 12:50 308 0 gusting 2 24.4
2020-Aug-05 12:45 357 1 gusting 2 24.7
2020-Aug-05 12:40 010 0 gusting 1 24.3
2020-Aug-05 12:35 335 0 gusting 2 24.0
2020-Aug-05 12:30 008 0 gusting 1 24.0
2020-Aug-05 12:25 008 0 gusting 2 23.6
2020-Aug-05 12:20 015 1 gusting 3 23.5
2020-Aug-05 12:15 028 1 gusting 3 23.6
2020-Aug-05 12:10 078 0 gusting 1 23.2
2020-Aug-05 12:05 344 0 gusting 0 22.9
2020-Aug-05 12:00 274 0 gusting 1 22.8
2020-Aug-05 11:55 347 0 gusting 2 22.7
2020-Aug-05 11:50 013 0 gusting 2 22.7
2020-Aug-05 11:45 021 1 gusting 4 23.0
2020-Aug-05 11:40 326 0 gusting 2 23.3
2020-Aug-05 11:35 053 0 gusting 1 23.1
2020-Aug-05 11:30 004 0 gusting 1 22.6
2020-Aug-05 11:25 007 0 gusting 1 22.4
2020-Aug-05 11:20 008 0 gusting 0 22.1
2020-Aug-05 11:15 019 0 gusting 2 21.7
2020-Aug-05 11:10 005 0 gusting 2 21.4
2020-Aug-05 11:05 018 0 gusting 1 21.3
2020-Aug-05 11:00 028 0 gusting 1 21.1
2020-Aug-05 10:55 21.2
2020-Aug-05 10:50 21.0
2020-Aug-05 10:45 20.7
2020-Aug-05 10:40 204 0 gusting 0 20.5
2020-Aug-05 10:35 20.4
2020-Aug-05 10:30 20.1
2020-Aug-05 10:25 20.1
2020-Aug-05 10:20 20.0
2020-Aug-05 10:15 20.1
2020-Aug-05 10:10 205 0 gusting 0 20.1
2020-Aug-05 10:05 205 0 gusting 0 20.2
2020-Aug-05 10:00 205 0 gusting 0 20.3
2020-Aug-05 09:55 205 0 gusting 1 20.4
2020-Aug-05 09:50 199 0 gusting 1 20.5
2020-Aug-05 09:45 226 0 gusting 1 20.7
2020-Aug-05 09:40 234 0 gusting 1 20.7
2020-Aug-05 09:35 236 0 gusting 2 20.7
2020-Aug-05 09:30 224 0 gusting 2 20.7
2020-Aug-05 09:25 224 1 gusting 2 20.7
2020-Aug-05 09:20 235 0 gusting 2 20.7
2020-Aug-05 09:15 247 1 gusting 2 20.7
2020-Aug-05 09:10 268 0 gusting 2 20.7
2020-Aug-05 09:05 272 0 gusting 1 20.6
2020-Aug-05 09:00 262 0 gusting 2 20.6
2020-Aug-05 08:55 232 0 gusting 2 20.5
2020-Aug-05 08:50 242 0 gusting 2 20.5
2020-Aug-05 08:45 236 0 gusting 1 20.5
2020-Aug-05 08:40 251 0 gusting 1 20.5
2020-Aug-05 08:35 275 0 gusting 0 20.5
2020-Aug-05 08:30 275 0 gusting 0 20.5
2020-Aug-05 08:25 274 0 gusting 0 20.5
2020-Aug-05 08:20 248 0 gusting 0 20.6
2020-Aug-05 08:15 20.6
2020-Aug-05 08:10 169 0 gusting 1 20.6
2020-Aug-05 08:05 181 0 gusting 1 20.6
2020-Aug-05 08:00 215 0 gusting 0 20.6
2020-Aug-05 07:55 220 0 gusting 1 20.7
2020-Aug-05 07:50 329 0 gusting 0 20.7
2020-Aug-05 07:45 20.6
2020-Aug-05 07:40 20.6
2020-Aug-05 07:35 036 0 gusting 0 20.6
2020-Aug-05 07:30 143 0 gusting 0 20.7
2020-Aug-05 07:25 159 0 gusting 1 20.8
2020-Aug-05 07:20 180 1 gusting 1 20.8
2020-Aug-05 07:15 207 0 gusting 1 20.8
2020-Aug-05 07:10 177 0 gusting 1 20.9
2020-Aug-05 07:05 185 0 gusting 1 20.9
2020-Aug-05 07:00 21.0
2020-Aug-05 06:55 21.0
2020-Aug-05 06:50 20.9
2020-Aug-05 06:45 185 0 gusting 1 20.9
2020-Aug-05 06:40 275 0 gusting 0 20.9
2020-Aug-05 06:35 034 0 gusting 0 20.9
2020-Aug-05 06:30 009 0 gusting 1 21.0
2020-Aug-05 06:25 334 0 gusting 1 21.0
2020-Aug-05 06:20 212 0 gusting 1 21.0
2020-Aug-05 06:15 241 1 gusting 2 21.0
2020-Aug-05 06:10 265 0 gusting 2 21.1
2020-Aug-05 06:05 228 1 gusting 1 21.0
2020-Aug-05 06:00 218 0 gusting 1 21.0
2020-Aug-05 05:55 340 0 gusting 0 21.1
2020-Aug-05 05:50 230 1 gusting 2 21.2
2020-Aug-05 05:45 204 1 gusting 2 21.2
2020-Aug-05 05:40 195 1 gusting 2 21.2
2020-Aug-05 05:35 214 2 gusting 4 21.1
2020-Aug-05 05:30 236 0 gusting 2 21.2
2020-Aug-05 05:25 220 0 gusting 1 21.3
2020-Aug-05 05:20 203 0 gusting 2 21.3
2020-Aug-05 05:15 222 3 gusting 9 21.2
2020-Aug-05 05:10 225 3 gusting 8 21.2
2020-Aug-05 05:05 248 0 gusting 3 21.4
2020-Aug-05 05:00 221 0 gusting 1 21.6
2020-Aug-05 04:55 108 0 gusting 2 21.5
2020-Aug-05 04:50 296 1 gusting 5 21.5
2020-Aug-05 04:45 250 1 gusting 4 21.6
2020-Aug-05 04:40 242 3 gusting 6 21.7
2020-Aug-05 04:35 242 3 gusting 8 21.9
2020-Aug-05 04:30 247 3 gusting 5 22.0
2020-Aug-05 04:25 244 3 gusting 7 21.7
2020-Aug-05 04:20 258 2 gusting 5 21.1
2020-Aug-05 04:15 249 1 gusting 2 21.1
2020-Aug-05 04:10 268 0 gusting 1 21.1
2020-Aug-05 04:05 213 1 gusting 3 21.1
2020-Aug-05 04:00 208 3 gusting 6 21.2
2020-Aug-05 03:55 208 3 gusting 6 20.9
2020-Aug-05 03:50 231 2 gusting 6 21.1
2020-Aug-05 03:45 244 2 gusting 6 21.6
2020-Aug-05 03:40 244 2 gusting 6 22.8
2020-Aug-05 03:35 354 2 gusting 6 23.5
2020-Aug-05 03:30 257 1 gusting 8 23.7
2020-Aug-05 03:25 333 2 gusting 10 23.9
2020-Aug-05 03:20 271 3 gusting 9 23.9
2020-Aug-05 03:15 248 2 gusting 5 23.7
2020-Aug-05 03:10 227 1 gusting 2 23.5
2020-Aug-05 03:05 262 0 gusting 2 23.8
2020-Aug-05 03:00 235 0 gusting 1 23.8
2020-Aug-05 02:55 350 0 gusting 2 23.6
2020-Aug-05 02:50 343 1 gusting 2 23.8
2020-Aug-05 02:45 242 1 gusting 3 24.0
2020-Aug-05 02:40 215 2 gusting 4 24.1
2020-Aug-05 02:35 208 2 gusting 4 24.1
2020-Aug-05 02:30 204 4 gusting 6 24.3
2020-Aug-05 02:25 206 4 gusting 6 24.5
2020-Aug-05 02:20 209 3 gusting 6 24.6
2020-Aug-05 02:15 208 3 gusting 6 24.8
2020-Aug-05 02:10 208 4 gusting 8 24.8
2020-Aug-05 02:05 217 2 gusting 4 25.0
2020-Aug-05 02:00 216 5 gusting 8 25.3
2020-Aug-05 01:55 217 5 gusting 8 25.4
2020-Aug-05 01:50 215 5 gusting 12 25.5
2020-Aug-05 01:45 215 5 gusting 10 25.5
2020-Aug-05 01:40 213 5 gusting 8 25.7
2020-Aug-05 01:35 212 6 gusting 10 25.8
2020-Aug-05 01:30 203 6 gusting 10 25.8
2020-Aug-05 01:25 209 3 gusting 6 25.8
2020-Aug-05 01:20 207 4 gusting 7 25.9
2020-Aug-05 01:15 196 4 gusting 8 25.8
2020-Aug-05 01:10 196 3 gusting 6 25.8
2020-Aug-05 01:05 196 3 gusting 5 25.8
2020-Aug-05 01:00 184 3 gusting 5 25.8
2020-Aug-05 00:55 185 2 gusting 4 25.8
2020-Aug-05 00:50 187 2 gusting 3 26.0
2020-Aug-05 00:45 187 2 gusting 5 26.0
2020-Aug-05 00:40 184 3 gusting 4 25.9
2020-Aug-05 00:35 187 2 gusting 3 26.0
2020-Aug-05 00:30 186 2 gusting 4 26.0
2020-Aug-05 00:25 197 2 gusting 3 26.0
2020-Aug-05 00:20 199 1 gusting 3 26.1
2020-Aug-05 00:15 198 2 gusting 4 26.2
2020-Aug-05 00:10 190 2 gusting 4 26.5
2020-Aug-05 00:05 183 3 gusting 4 26.6
2020-Aug-05 00:00 195 2 gusting 5 26.5
2020-Aug-04 23:55 197 2 gusting 4 26.5
2020-Aug-04 23:50 194 2 gusting 4 26.5
2020-Aug-04 23:45 205 2 gusting 2 26.5
2020-Aug-04 23:40 208 2 gusting 3 26.7
2020-Aug-04 23:35 211 2 gusting 4 27.0
2020-Aug-04 23:30 211 3 gusting 5 27.2
2020-Aug-04 23:25 210 4 gusting 6 27.2
2020-Aug-04 23:20 213 4 gusting 7 27.4
2020-Aug-04 23:15 214 3 gusting 5 27.6
2020-Aug-04 23:10 217 3 gusting 6 27.9
2020-Aug-04 23:05 221 3 gusting 6 28.0
2020-Aug-04 23:00 215 4 gusting 8 28.1
2020-Aug-04 22:55 215 3 gusting 6 28.1
2020-Aug-04 22:50 225 4 gusting 8 28.1
2020-Aug-04 22:45 217 4 gusting 9 28.3
2020-Aug-04 22:40 239 3 gusting 7 28.3
2020-Aug-04 22:35 227 5 gusting 8 28.3
2020-Aug-04 22:30 218 5 gusting 10 28.4
2020-Aug-04 22:25 216 4 gusting 7 28.4
2020-Aug-04 22:20 223 5 gusting 11 28.5
2020-Aug-04 22:15 219 3 gusting 6 28.5
2020-Aug-04 22:10 222 5 gusting 9 28.5
2020-Aug-04 22:05 229 4 gusting 8 28.5
2020-Aug-04 22:00 233 6 gusting 12 28.5
2020-Aug-04 21:55 234 5 gusting 11 28.5
2020-Aug-04 21:50 234 5 gusting 8 28.5
2020-Aug-04 21:45 228 4 gusting 8 28.5
2020-Aug-04 21:40 217 5 gusting 10 28.5
2020-Aug-04 21:35 227 4 gusting 7 28.6
2020-Aug-04 21:30 237 4 gusting 8 28.5
2020-Aug-04 21:25 228 5 gusting 11 28.4
2020-Aug-04 21:20 237 5 gusting 10 28.4
2020-Aug-04 21:15 229 4 gusting 7 28.5
2020-Aug-04 21:10 224 5 gusting 11 28.2
2020-Aug-04 21:05 228 5 gusting 10 28.2
2020-Aug-04 21:00 246 4 gusting 10 28.5
2020-Aug-04 20:55 236 4 gusting 9 28.5
2020-Aug-04 20:50 254 3 gusting 7 28.2
2020-Aug-04 20:45 257 4 gusting 11 28.0
2020-Aug-04 20:40 253 5 gusting 11 28.0
2020-Aug-04 20:35 248 6 gusting 11 27.7
2020-Aug-04 20:30 241 5 gusting 12 27.9
2020-Aug-04 20:25 246 5 gusting 10 27.9
2020-Aug-04 20:20 242 5 gusting 12 28.0
2020-Aug-04 20:15 244 3 gusting 8 28.0
2020-Aug-04 20:10 245 4 gusting 9 27.8
2020-Aug-04 20:05 237 4 gusting 12 27.8
2020-Aug-04 20:00 263 5 gusting 11 27.7
2020-Aug-04 19:55 246 5 gusting 14 27.4
2020-Aug-04 19:50 250 5 gusting 12 27.0
2020-Aug-04 19:45 246 5 gusting 10 26.4
2020-Aug-04 19:40 243 5 gusting 13 26.2
2020-Aug-04 19:35 260 4 gusting 8 26.1
2020-Aug-04 19:30 247 4 gusting 10 25.7
2020-Aug-04 19:25 252 4 gusting 8 25.7
2020-Aug-04 19:20 254 4 gusting 8 26.1
2020-Aug-04 19:15 247 5 gusting 13 26.3
2020-Aug-04 19:10 252 7 gusting 13 26.1
2020-Aug-04 19:05 248 6 gusting 15 26.4
2020-Aug-04 19:00 247 5 gusting 10 26.5
2020-Aug-04 18:55 250 3 gusting 7 26.3
2020-Aug-04 18:50 250 3 gusting 8 26.2
2020-Aug-04 18:45 242 4 gusting 8 25.3
2020-Aug-04 18:40 256 5 gusting 13 25.5
2020-Aug-04 18:35 251 7 gusting 19 25.6
2020-Aug-04 18:30 260 6 gusting 14 26.1
2020-Aug-04 18:25 254 8 gusting 15 26.0
2020-Aug-04 18:20 259 6 gusting 15 25.9
2020-Aug-04 18:15 253 7 gusting 14 25.8
2020-Aug-04 18:10 256 5 gusting 11 25.7
2020-Aug-04 18:05 256 7 gusting 16 25.3
2020-Aug-04 18:00 257 6 gusting 12 25.1
2020-Aug-04 17:55 246 6 gusting 17 25.0
2020-Aug-04 17:50 255 6 gusting 16 24.8
2020-Aug-04 17:45 250 6 gusting 13 24.7
2020-Aug-04 17:40 245 7 gusting 18 24.2
2020-Aug-04 17:35 252 6 gusting 13 23.9
2020-Aug-04 17:30 243 7 gusting 13 23.3
2020-Aug-04 17:25 251 5 gusting 12 22.7
2020-Aug-04 17:20 247 7 gusting 13 22.6
2020-Aug-04 17:15 250 6 gusting 15 22.6
2020-Aug-04 17:10 247 6 gusting 12 22.7
2020-Aug-04 17:05 245 6 gusting 13 22.4
2020-Aug-04 17:00 277 4 gusting 12 22.1
2020-Aug-04 16:55 243 3 gusting 10 22.0
2020-Aug-04 16:50 016 3 gusting 12 21.8
2020-Aug-04 16:45 344 4 gusting 9 21.9
2020-Aug-04 16:40 338 3 gusting 10 21.7
2020-Aug-04 16:35 236 5 gusting 10 21.6
2020-Aug-04 16:30 238 3 gusting 13 21.6
2020-Aug-04 16:25 228 3 gusting 12 21.6
2020-Aug-04 16:20 341 5 gusting 18 21.3
2020-Aug-04 16:15 312 4 gusting 12 21.0
2020-Aug-04 16:10 328 4 gusting 11 20.8
2020-Aug-04 16:05 332 5 gusting 12 20.7
2020-Aug-04 16:00 340 7 gusting 16 20.6
2020-Aug-04 15:55 312 5 gusting 19 20.9
2020-Aug-04 15:50 337 5 gusting 21 21.4
2020-Aug-04 15:45 278 6 gusting 18 22.4
2020-Aug-04 15:40 228 4 gusting 9 22.7
2020-Aug-04 15:35 216 4 gusting 7 22.7
2020-Aug-04 15:30 210 4 gusting 7 22.7
2020-Aug-04 15:25 216 4 gusting 8 22.7
2020-Aug-04 15:20 218 3 gusting 5 22.7
2020-Aug-04 15:15 212 3 gusting 5 22.7
2020-Aug-04 15:10 206 5 gusting 9 22.7
2020-Aug-04 15:05 192 7 gusting 14 22.6
2020-Aug-04 15:00 197 6 gusting 12 22.7
2020-Aug-04 14:55 185 5 gusting 9 22.8
2020-Aug-04 14:50 178 4 gusting 9 22.8
2020-Aug-04 14:45 179 7 gusting 15 22.8
2020-Aug-04 14:40 177 8 gusting 16 22.9
2020-Aug-04 14:35 171 7 gusting 14 23.1
2020-Aug-04 14:30 173 8 gusting 17 23.2
2020-Aug-04 14:25 169 9 gusting 18 23.4
2020-Aug-04 14:20 167 8 gusting 17 23.7
2020-Aug-04 14:15 180 10 gusting 21 24.1
2020-Aug-04 14:10 174 12 gusting 23 24.1
2020-Aug-04 14:05 164 10 gusting 19 24.3
2020-Aug-04 14:00 144 8 gusting 18 24.3
2020-Aug-04 13:55 137 7 gusting 19 24.3
2020-Aug-04 13:50 130 7 gusting 19 24.2
2020-Aug-04 13:45 131 5 gusting 15 24.2
2020-Aug-04 13:40 120 4 gusting 18 24.2
2020-Aug-04 13:35 151 5 gusting 12 24.1
2020-Aug-04 13:30 151 4 gusting 9 24.1
2020-Aug-04 13:25 165 7 gusting 17 24.1
2020-Aug-04 13:20 166 7 gusting 15 24.1
2020-Aug-04 13:15 205 14 gusting 33 24.2
2020-Aug-04 13:10 111 7 gusting 31 24.5
2020-Aug-04 13:05 062 5 gusting 13 24.6
2020-Aug-04 13:00 091 8 gusting 21 24.7
2020-Aug-04 12:55 097 7 gusting 17 24.8
2020-Aug-04 12:50 085 7 gusting 15 24.8
2020-Aug-04 12:45 091 7 gusting 12 24.9
2020-Aug-04 12:40 090 6 gusting 14 25.0
2020-Aug-04 12:35 091 6 gusting 14 25.0
2020-Aug-04 12:30 094 8 gusting 18 25.0
2020-Aug-04 12:25 100 5 gusting 19 24.9
2020-Aug-04 12:20 116 6 gusting 13 24.7
2020-Aug-04 12:15 111 5 gusting 15 24.9
2020-Aug-04 12:10 094 6 gusting 15 25.0
2020-Aug-04 12:05 097 5 gusting 15 25.0
2020-Aug-04 12:00 098 4 gusting 13 25.0